createdAt,value
2023-06-19T00:00:58.314Z,6683.00
2023-06-19T00:01:58.300Z,6696.00
2023-06-19T00:02:58.462Z,6631.00
2023-06-19T00:03:58.547Z,6661.00
2023-06-19T00:04:58.516Z,6656.00
2023-06-19T00:05:58.611Z,6753.00
2023-06-19T00:06:58.753Z,6765.00
2023-06-19T00:07:58.778Z,6777.00
2023-06-19T00:08:58.866Z,6698.00
2023-06-19T00:09:58.976Z,6687.00
2023-06-19T00:10:58.997Z,6676.00
2023-06-19T00:11:59.109Z,6651.00
2023-06-19T00:12:59.188Z,6652.00
2023-06-19T00:13:59.842Z,6663.00
2023-06-19T00:14:59.401Z,6659.00
2023-06-19T00:15:59.485Z,6661.00
2023-06-19T00:16:59.549Z,6744.00
2023-06-19T00:17:59.827Z,6711.00
2023-06-19T00:18:59.696Z,6674.00
2023-06-19T00:19:59.849Z,6714.00
2023-06-19T00:20:59.921Z,6743.00
2023-06-19T00:21:59.980Z,6735.00
2023-06-19T00:23:00.049Z,6685.00
2023-06-19T00:24:00.140Z,6620.00
2023-06-19T00:25:00.277Z,6630.00
2023-06-19T00:26:00.275Z,6710.00
2023-06-19T00:27:00.360Z,6781.00
2023-06-19T00:28:00.446Z,6804.00
2023-06-19T00:29:00.506Z,6766.00
2023-06-19T00:30:00.577Z,6828.00
2023-06-19T00:31:01.332Z,6890.00
2023-06-19T00:32:00.855Z,6824.00
2023-06-19T00:33:00.931Z,6694.00
2023-06-19T00:34:00.999Z,6658.00
2023-06-19T00:35:01.107Z,6662.00
2023-06-19T00:36:01.180Z,6660.00
2023-06-19T00:37:01.292Z,6708.00
2023-06-19T00:38:01.366Z,6702.00
2023-06-19T00:39:01.467Z,6723.00
2023-06-19T00:40:01.555Z,6616.00
2023-06-19T00:41:01.622Z,6569.00
2023-06-19T00:42:01.841Z,6628.00
2023-06-19T00:43:01.860Z,6703.00
2023-06-19T00:44:01.952Z,6766.00
2023-06-19T00:45:02.042Z,6772.00
2023-06-19T00:46:02.195Z,6856.00
2023-06-19T00:47:02.230Z,6854.00
2023-06-19T00:48:02.466Z,6890.00
2023-06-19T00:49:02.401Z,6919.00
2023-06-19T00:50:02.526Z,6868.00
2023-06-19T00:51:02.600Z,6832.00
2023-06-19T00:52:02.696Z,6792.00
2023-06-19T00:53:02.796Z,6655.00
2023-06-19T00:54:02.892Z,6660.00
2023-06-19T00:55:02.993Z,6678.00
2023-06-19T00:56:03.095Z,6487.00
2023-06-19T00:57:03.204Z,6350.00
2023-06-19T00:58:03.424Z,6372.00
2023-06-19T00:59:03.402Z,6433.00
2023-06-19T01:00:03.504Z,6433.00
2023-06-19T01:01:08.693Z,6420.00
2023-06-19T01:02:04.704Z,6422.00
2023-06-19T01:03:03.766Z,6436.00
2023-06-19T01:04:03.932Z,6469.00
2023-06-19T01:05:03.851Z,6549.00
2023-06-19T01:06:03.910Z,6634.00
2023-06-19T01:07:03.963Z,6608.00
2023-06-19T01:08:04.047Z,6560.00
2023-06-19T01:09:04.075Z,6435.00
2023-06-19T01:10:04.156Z,6295.00
2023-06-19T01:11:11.814Z,6073.00
2023-06-19T01:12:05.281Z,5966.00
2023-06-19T01:13:04.344Z,5949.00
2023-06-19T01:14:04.403Z,5967.00
2023-06-19T01:15:04.479Z,5982.00
2023-06-19T01:16:04.551Z,5955.00
2023-06-19T01:17:04.652Z,5917.00
2023-06-19T01:18:04.821Z,5877.00
2023-06-19T01:19:04.765Z,5860.00
2023-06-19T01:20:04.845Z,5790.00
2023-06-19T01:21:04.914Z,5843.00
2023-06-19T01:22:05.353Z,5890.00
2023-06-19T01:23:05.070Z,5939.00
2023-06-19T01:24:05.347Z,5982.00
2023-06-19T01:25:05.315Z,6037.00
2023-06-19T01:26:05.445Z,6084.00
2023-06-19T01:27:05.551Z,6123.00
2023-06-19T01:28:05.685Z,6158.00
2023-06-19T01:29:05.849Z,6269.00
2023-06-19T01:30:05.908Z,6330.00
2023-06-19T01:31:06.022Z,6324.00
2023-06-19T01:32:06.347Z,6339.00
2023-06-19T01:33:06.353Z,6349.00
2023-06-19T01:34:06.399Z,6324.00
2023-06-19T01:35:06.533Z,6309.00
2023-06-19T01:36:06.674Z,6297.00
2023-06-19T01:37:06.807Z,6314.00
2023-06-19T01:38:06.946Z,6369.00
2023-06-19T01:39:07.078Z,6469.00
2023-06-19T01:40:07.206Z,6487.00
2023-06-19T01:41:07.321Z,6536.00
2023-06-19T01:42:07.437Z,6567.00
2023-06-19T01:43:07.560Z,6529.00
2023-06-19T01:44:07.693Z,6573.00
2023-06-19T01:45:07.834Z,6677.00
2023-06-19T01:46:07.985Z,6712.00
2023-06-19T01:47:08.051Z,6686.00
2023-06-19T01:48:08.206Z,6608.00
2023-06-19T01:49:08.299Z,6506.00
2023-06-19T01:50:09.367Z,6443.00
2023-06-19T01:51:08.616Z,6430.00
2023-06-19T01:52:08.856Z,6451.00
2023-06-19T01:53:08.769Z,6532.00
2023-06-19T01:54:08.874Z,6591.00
2023-06-19T01:55:08.981Z,6637.00
2023-06-19T01:56:09.093Z,6608.00
2023-06-19T01:57:09.214Z,6568.00
2023-06-19T01:58:09.324Z,6590.00
2023-06-19T01:59:09.439Z,6533.00
2023-06-19T02:00:09.572Z,6482.00
2023-06-19T02:01:09.679Z,6552.00
2023-06-19T02:02:09.839Z,6607.00
2023-06-19T02:03:10.049Z,6587.00
2023-06-19T02:04:10.073Z,6603.00
2023-06-19T02:05:10.193Z,6612.00
2023-06-19T02:06:10.319Z,6608.00
2023-06-19T02:07:10.471Z,6561.00
2023-06-19T02:08:10.585Z,6668.00
2023-06-19T02:09:11.365Z,6666.00
2023-06-19T02:10:10.910Z,6697.00
2023-06-19T02:11:10.980Z,6674.00
2023-06-19T02:12:11.117Z,6621.00
2023-06-19T02:13:11.257Z,6529.00
2023-06-19T02:14:11.374Z,6468.00
2023-06-19T02:15:11.581Z,6538.00
2023-06-19T02:16:11.673Z,6533.00
2023-06-19T02:17:11.769Z,6344.00
2023-06-19T02:18:11.885Z,6250.00
2023-06-19T02:19:12.034Z,6236.00
2023-06-19T02:20:12.192Z,6268.00
2023-06-19T02:21:12.331Z,6295.00
2023-06-19T02:22:12.477Z,6311.00
2023-06-19T02:23:12.628Z,6324.00
2023-06-19T02:24:12.784Z,6357.00
2023-06-19T02:25:12.905Z,6383.00
2023-06-19T02:26:13.042Z,6402.00
2023-06-19T02:27:13.186Z,6410.00
2023-06-19T02:28:13.330Z,6362.00
2023-06-19T02:29:13.516Z,6322.00
2023-06-19T02:30:13.609Z,6321.00
2023-06-19T02:31:13.740Z,6329.00
2023-06-19T02:32:13.879Z,6357.00
2023-06-19T02:33:14.000Z,6349.00
2023-06-19T02:34:14.134Z,6350.00
2023-06-19T02:35:14.260Z,6257.00
2023-06-19T02:36:14.385Z,6160.00
2023-06-19T02:37:14.531Z,5985.00
2023-06-19T02:38:14.655Z,5885.00
2023-06-19T02:39:14.848Z,5709.00
2023-06-19T02:40:14.945Z,5556.00
2023-06-19T02:41:15.068Z,5561.00
2023-06-19T02:42:15.208Z,5498.00
2023-06-19T02:43:15.331Z,5534.00
2023-06-19T02:44:15.453Z,5460.00
2023-06-19T02:45:15.581Z,5360.00
2023-06-19T02:46:15.739Z,5324.00
2023-06-19T02:47:15.813Z,5374.00
2023-06-19T02:48:15.926Z,5387.00
2023-06-19T02:49:16.044Z,5316.00
2023-06-19T02:50:16.154Z,5268.00
2023-06-19T02:51:16.250Z,5160.00
2023-06-19T02:52:16.356Z,4786.00
2023-06-19T02:53:16.454Z,4722.00
2023-06-19T02:54:16.549Z,4881.00
2023-06-19T02:55:16.671Z,4937.00
2023-06-19T02:56:16.782Z,4982.00
2023-06-19T02:57:16.904Z,4967.00
2023-06-19T02:58:17.025Z,4955.00
2023-06-19T02:59:17.156Z,4960.00
2023-06-19T03:00:17.279Z,4953.00
2023-06-19T03:01:17.445Z,4902.00
2023-06-19T03:02:17.476Z,4897.00
2023-06-19T03:03:17.680Z,4959.00
2023-06-19T03:04:17.697Z,4978.00
2023-06-19T03:05:17.761Z,4963.00
2023-06-19T03:06:17.888Z,5079.00
2023-06-19T03:07:18.082Z,5193.00
2023-06-19T03:08:18.210Z,5247.00
2023-06-19T03:09:18.342Z,5251.00
2023-06-19T03:10:18.473Z,5174.00
2023-06-19T03:11:18.622Z,5147.00
2023-06-19T03:12:18.724Z,5118.00
2023-06-19T03:13:18.860Z,5062.00
2023-06-19T03:14:19.030Z,4938.00
2023-06-19T03:15:19.056Z,4909.00
2023-06-19T03:16:19.189Z,4966.00
2023-06-19T03:17:19.382Z,4967.00
2023-06-19T03:18:19.381Z,4890.00
2023-06-19T03:19:19.482Z,4669.00
2023-06-19T03:20:19.564Z,4438.00
2023-06-19T03:21:20.394Z,4552.00
2023-06-19T03:22:19.783Z,4680.00
2023-06-19T03:23:20.378Z,4801.00
2023-06-19T03:24:20.012Z,4830.00
2023-06-19T03:25:20.137Z,4790.00
2023-06-19T03:26:20.270Z,4839.00
2023-06-19T03:27:20.391Z,4891.00
2023-06-19T03:28:20.553Z,4947.00
2023-06-19T03:29:20.725Z,4919.00
2023-06-19T03:30:20.935Z,4867.00
2023-06-19T03:31:21.079Z,4808.00
2023-06-19T03:32:21.355Z,4788.00
2023-06-19T03:33:21.417Z,4711.00
2023-06-19T03:34:21.587Z,4649.00
2023-06-19T03:35:21.775Z,4636.00
2023-06-19T03:36:21.934Z,4672.00
2023-06-19T03:37:22.066Z,4725.00
2023-06-19T03:38:22.206Z,4792.00
2023-06-19T03:39:22.363Z,4868.00
2023-06-19T03:40:22.868Z,4915.00
2023-06-19T03:41:22.714Z,4927.00
2023-06-19T03:42:22.865Z,4946.00
2023-06-19T03:43:23.030Z,4930.00
2023-06-19T03:44:23.191Z,4894.00
2023-06-19T03:45:23.312Z,4794.00
2023-06-19T03:46:23.518Z,4801.00
2023-06-19T03:47:23.636Z,4787.00
2023-06-19T03:48:23.774Z,4804.00
2023-06-19T03:49:23.902Z,4872.00
2023-06-19T03:50:26.389Z,4975.00
2023-06-19T03:51:24.135Z,4926.00
2023-06-19T03:52:24.229Z,4775.00
2023-06-19T03:53:24.319Z,4626.00
2023-06-19T03:54:24.403Z,4579.00
2023-06-19T03:55:24.512Z,4664.00
2023-06-19T03:56:24.590Z,4482.00
2023-06-19T03:57:24.692Z,4533.00
2023-06-19T03:58:24.782Z,4660.00
2023-06-19T03:59:24.883Z,4754.00
2023-06-19T04:00:25.250Z,4638.00
2023-06-19T04:01:25.088Z,4430.00
2023-06-19T04:02:25.175Z,4425.00
2023-06-19T04:03:25.301Z,4499.00
2023-06-19T04:04:25.374Z,4503.00
2023-06-19T04:05:25.439Z,4500.00
2023-06-19T04:06:25.562Z,4533.00
2023-06-19T04:07:25.643Z,4498.00
2023-06-19T04:08:25.728Z,4570.00
2023-06-19T04:09:25.835Z,4643.00
2023-06-19T04:10:26.270Z,4661.00
2023-06-19T04:11:26.034Z,4706.00
2023-06-19T04:12:26.131Z,4739.00
2023-06-19T04:13:26.289Z,4700.00
2023-06-19T04:14:26.338Z,4620.00
2023-06-19T04:15:26.481Z,4494.00
2023-06-19T04:16:27.536Z,4432.00
2023-06-19T04:17:26.696Z,4338.00
2023-06-19T04:18:26.790Z,4322.00
2023-06-19T04:19:27.914Z,4108.00
2023-06-19T04:20:27.099Z,3915.00
2023-06-19T04:21:27.128Z,3598.00
2023-06-19T04:22:27.287Z,3550.00
2023-06-19T04:23:27.290Z,3449.00
2023-06-19T04:24:27.936Z,3245.00
2023-06-19T04:25:27.469Z,3167.00
2023-06-19T04:26:27.515Z,3167.00
2023-06-19T04:27:27.586Z,3350.00
2023-06-19T04:28:27.667Z,3777.00
2023-06-19T04:29:27.745Z,4151.00
2023-06-19T04:30:27.972Z,4300.00
2023-06-19T04:31:27.938Z,4482.00
2023-06-19T04:32:28.099Z,4640.00
2023-06-19T04:33:29.122Z,4723.00
2023-06-19T04:34:28.225Z,4798.00
2023-06-19T04:35:28.316Z,4874.00
2023-06-19T04:36:28.407Z,4930.00
2023-06-19T04:37:28.485Z,4941.00
2023-06-19T04:38:28.599Z,4881.00
2023-06-19T04:39:28.624Z,4885.00
2023-06-19T04:40:28.711Z,4833.00
2023-06-19T04:41:28.798Z,4790.00
2023-06-19T04:42:28.867Z,4752.00
2023-06-19T04:43:30.417Z,4752.00
2023-06-19T04:44:29.911Z,4760.00
2023-06-19T04:45:29.103Z,4803.00
2023-06-19T04:46:29.267Z,4816.00
2023-06-19T04:47:39.784Z,4804.00
2023-06-19T04:48:30.493Z,4754.00
2023-06-19T04:49:29.426Z,4764.00
2023-06-19T04:50:29.520Z,4786.00
2023-06-19T04:51:29.616Z,4797.00
2023-06-19T04:52:29.793Z,4838.00
2023-06-19T04:53:29.801Z,4831.00
2023-06-19T04:54:29.909Z,4781.00
2023-06-19T04:55:29.994Z,4740.00
2023-06-19T04:56:30.070Z,4694.00
2023-06-19T04:57:30.183Z,4590.00
2023-06-19T04:58:30.270Z,4258.00
2023-06-19T04:59:30.365Z,4078.00
2023-06-19T05:00:30.465Z,3968.00
2023-06-19T05:01:30.572Z,3893.00
2023-06-19T05:02:30.680Z,3835.00
2023-06-19T05:03:30.764Z,3765.00
2023-06-19T05:04:30.900Z,3668.00
2023-06-19T05:05:30.966Z,3606.00
2023-06-19T05:06:31.050Z,3581.00
2023-06-19T05:07:31.159Z,3499.00
2023-06-19T05:08:31.246Z,3465.00
2023-06-19T05:09:31.917Z,3475.00
2023-06-19T05:10:31.515Z,3440.00
2023-06-19T05:11:31.632Z,3399.00
2023-06-19T05:12:31.761Z,3334.00
2023-06-19T05:13:31.896Z,3319.00
2023-06-19T05:14:32.017Z,3418.00
2023-06-19T05:15:32.145Z,3506.00
2023-06-19T05:16:34.401Z,3425.00
2023-06-19T05:17:32.409Z,3427.00
2023-06-19T05:18:32.408Z,3474.00
2023-06-19T05:19:32.467Z,3603.00
2023-06-19T05:20:32.535Z,3794.00
2023-06-19T05:21:32.608Z,3813.00
2023-06-19T05:22:32.670Z,3649.00
2023-06-19T05:23:32.724Z,3567.00
2023-06-19T05:24:32.832Z,3504.00
2023-06-19T05:25:32.851Z,3420.00
2023-06-19T05:26:32.917Z,3338.00
2023-06-19T05:27:32.976Z,3116.00
2023-06-19T05:28:33.036Z,2824.00
2023-06-19T05:29:33.083Z,2784.00
2023-06-19T05:30:33.233Z,3156.00
2023-06-19T05:31:33.203Z,3654.00
2023-06-19T05:32:33.331Z,3934.00
2023-06-19T05:33:33.310Z,3935.00
2023-06-19T05:34:33.357Z,3930.00
2023-06-19T05:35:33.419Z,3691.00
2023-06-19T05:36:33.472Z,3428.00
2023-06-19T05:37:33.507Z,3218.00
2023-06-19T05:38:33.546Z,3097.00
2023-06-19T05:39:33.585Z,2881.00
2023-06-19T05:40:33.628Z,2710.00
2023-06-19T05:41:33.692Z,2533.00
2023-06-19T05:42:33.843Z,2520.00
2023-06-19T05:43:34.948Z,2447.00
2023-06-19T05:44:34.063Z,2447.00
2023-06-19T05:45:34.147Z,2442.00
2023-06-19T05:46:34.240Z,2413.00
2023-06-19T05:47:34.363Z,2460.00
2023-06-19T05:48:34.432Z,2421.00
2023-06-19T05:49:34.531Z,2329.00
2023-06-19T05:50:34.608Z,2226.00
2023-06-19T05:51:34.683Z,2243.00
2023-06-19T05:52:34.765Z,2251.00
2023-06-19T05:53:34.844Z,2271.00
2023-06-19T05:54:34.957Z,2247.00
2023-06-19T05:55:35.068Z,2262.00
2023-06-19T05:56:35.128Z,2296.00
2023-06-19T05:57:35.289Z,2351.00
2023-06-19T05:58:35.298Z,2224.00
2023-06-19T05:59:35.455Z,2096.00
2023-06-19T06:00:35.609Z,2098.00
2023-06-19T06:01:35.574Z,2155.00
2023-06-19T06:02:35.714Z,2208.00
2023-06-19T06:03:35.792Z,2240.00
2023-06-19T06:04:36.020Z,2246.00
2023-06-19T06:05:35.960Z,2107.00
2023-06-19T06:06:36.034Z,2100.00
2023-06-19T06:07:36.558Z,2316.00
2023-06-19T06:08:36.165Z,2311.00
2023-06-19T06:09:36.258Z,2479.00
2023-06-19T06:10:36.377Z,2860.00
2023-06-19T06:11:36.530Z,3362.00
2023-06-19T06:12:36.939Z,3708.00
2023-06-19T06:13:36.799Z,3896.00
2023-06-19T06:14:37.449Z,3938.00
2023-06-19T06:15:36.909Z,3915.00
2023-06-19T06:16:37.032Z,3950.00
2023-06-19T06:17:37.113Z,3971.00
2023-06-19T06:18:37.176Z,3981.00
2023-06-19T06:19:37.360Z,4022.00
2023-06-19T06:20:37.395Z,4022.00
2023-06-19T06:21:37.516Z,3980.00
2023-06-19T06:22:37.698Z,3992.00
2023-06-19T06:23:37.778Z,3992.00
2023-06-19T06:24:37.921Z,3717.00
2023-06-19T06:25:37.982Z,3779.00
2023-06-19T06:26:38.986Z,3592.00
2023-06-19T06:27:38.132Z,3413.00
2023-06-19T06:28:38.189Z,3132.00
2023-06-19T06:29:39.331Z,2967.00
2023-06-19T06:30:38.441Z,2894.00
2023-06-19T06:31:38.509Z,2918.00
2023-06-19T06:32:38.597Z,3051.00
2023-06-19T06:33:38.683Z,3244.00
2023-06-19T06:34:38.899Z,3294.00
2023-06-19T06:35:39.086Z,2776.00
2023-06-19T06:36:46.389Z,2539.00
2023-06-19T06:37:40.286Z,2542.00
2023-06-19T06:38:39.323Z,2573.00
2023-06-19T06:39:39.345Z,2670.00
2023-06-19T06:40:39.456Z,2843.00
2023-06-19T06:41:39.420Z,3135.00
2023-06-19T06:42:39.450Z,3202.00
2023-06-19T06:43:39.481Z,3237.00
2023-06-19T06:44:39.523Z,3121.00
2023-06-19T06:45:39.660Z,3084.00
2023-06-19T06:46:39.592Z,3049.00
2023-06-19T06:47:39.692Z,3018.00
2023-06-19T06:48:39.760Z,2871.00
2023-06-19T06:49:39.852Z,2625.00
2023-06-19T06:50:39.933Z,2441.00
2023-06-19T06:51:40.017Z,2246.00
2023-06-19T06:52:40.086Z,2155.00
2023-06-19T06:53:40.959Z,2151.00
2023-06-19T06:54:40.320Z,2273.00
2023-06-19T06:55:40.343Z,2459.00
2023-06-19T06:56:40.421Z,2617.00
2023-06-19T06:57:40.477Z,2601.00
2023-06-19T06:58:40.551Z,2658.00
2023-06-19T06:59:40.594Z,2722.00
2023-06-19T07:00:40.664Z,2612.00
2023-06-19T07:01:40.713Z,2322.00
2023-06-19T07:02:40.899Z,2340.00
2023-06-19T07:03:40.886Z,2337.00
2023-06-19T07:04:40.854Z,2285.00
2023-06-19T07:05:40.914Z,2095.00
2023-06-19T07:06:40.951Z,1988.00
2023-06-19T07:07:41.028Z,1902.00
2023-06-19T07:08:41.065Z,1907.00
2023-06-19T07:09:41.182Z,1844.00
2023-06-19T07:10:41.147Z,1762.00
2023-06-19T07:11:41.207Z,1709.00
2023-06-19T07:12:41.264Z,1620.00
2023-06-19T07:13:41.379Z,1514.00
2023-06-19T07:14:41.383Z,1434.00
2023-06-19T07:15:41.435Z,1340.00
2023-06-19T07:16:41.522Z,1303.00
2023-06-19T07:17:41.671Z,1313.00
2023-06-19T07:18:41.581Z,1324.00
2023-06-19T07:19:41.612Z,1356.00
2023-06-19T07:20:41.676Z,1349.00
2023-06-19T07:21:41.760Z,1358.00
2023-06-19T07:22:41.829Z,1433.00
2023-06-19T07:23:42.480Z,1576.00
2023-06-19T07:24:42.061Z,1626.00
2023-06-19T07:25:41.989Z,1667.00
2023-06-19T07:26:42.027Z,1787.00
2023-06-19T07:27:42.108Z,1736.00
2023-06-19T07:28:42.186Z,1658.00
2023-06-19T07:29:42.170Z,1664.00
2023-06-19T07:30:42.184Z,1769.00
2023-06-19T07:31:42.198Z,1818.00
2023-06-19T07:32:42.260Z,1885.00
2023-06-19T07:33:42.234Z,1862.00
2023-06-19T07:34:42.273Z,1721.00
2023-06-19T07:35:42.343Z,1660.00
2023-06-19T07:36:42.310Z,1588.00
2023-06-19T07:37:42.381Z,1601.00
2023-06-19T07:38:42.508Z,1625.00
2023-06-19T07:39:42.495Z,1559.00
2023-06-19T07:40:42.571Z,1555.00
2023-06-19T07:41:42.582Z,1539.00
2023-06-19T07:42:44.583Z,1643.00
2023-06-19T07:43:42.737Z,1681.00
2023-06-19T07:44:42.755Z,1787.00
2023-06-19T07:45:42.839Z,1665.00
2023-06-19T07:46:42.865Z,1636.00
2023-06-19T07:47:42.960Z,1694.00
2023-06-19T07:48:42.949Z,1750.00
2023-06-19T07:49:43.120Z,1666.00
2023-06-19T07:50:43.049Z,1664.00
2023-06-19T07:51:43.142Z,1630.00
2023-06-19T07:52:43.184Z,1778.00
2023-06-19T07:53:43.224Z,1944.00
2023-06-19T07:54:43.361Z,1976.00
2023-06-19T07:55:43.234Z,1959.00
2023-06-19T07:56:43.261Z,1776.00
2023-06-19T07:57:43.301Z,1681.00
2023-06-19T07:58:43.311Z,1663.00
2023-06-19T07:59:43.474Z,1832.00
2023-06-19T08:00:43.341Z,1993.00
2023-06-19T08:01:43.378Z,1988.00
2023-06-19T08:02:43.459Z,1963.00
2023-06-19T08:03:43.446Z,2075.00
2023-06-19T08:04:43.447Z,1960.00
2023-06-19T08:05:43.438Z,1884.00
2023-06-19T08:06:43.467Z,1855.00
2023-06-19T08:07:43.485Z,1919.00
2023-06-19T08:08:43.493Z,1942.00
2023-06-19T08:09:43.507Z,2056.00
2023-06-19T08:10:43.550Z,1839.00
2023-06-19T08:11:43.554Z,1660.00
2023-06-19T08:12:43.999Z,1537.00
2023-06-19T08:13:43.556Z,1520.00
2023-06-19T08:14:43.677Z,1494.00
2023-06-19T08:15:44.455Z,1601.00
2023-06-19T08:16:43.662Z,1605.00
2023-06-19T08:17:43.672Z,1688.00
2023-06-19T08:18:43.679Z,1560.00
2023-06-19T08:19:43.614Z,1400.00
2023-06-19T08:20:43.611Z,1424.00
2023-06-19T08:21:43.582Z,1691.00
2023-06-19T08:22:43.570Z,1762.00
2023-06-19T08:23:43.547Z,1650.00
2023-06-19T08:24:43.568Z,1629.00
2023-06-19T08:25:43.529Z,1613.00
2023-06-19T08:26:43.551Z,1426.00
2023-06-19T08:27:43.472Z,1158.00
2023-06-19T08:28:43.450Z,977.00
2023-06-19T08:29:43.444Z,829.00
2023-06-19T08:30:43.441Z,834.00
2023-06-19T08:31:43.466Z,998.00
2023-06-19T08:32:43.530Z,1304.00
2023-06-19T08:33:44.423Z,1504.00
2023-06-19T08:34:43.589Z,1478.00
2023-06-19T08:35:43.548Z,1390.00
2023-06-19T08:36:44.508Z,1455.00
2023-06-19T08:37:43.595Z,1424.00
2023-06-19T08:38:44.418Z,1491.00
2023-06-19T08:39:43.636Z,1545.00
2023-06-19T08:40:43.658Z,1463.00
2023-06-19T08:41:43.759Z,1348.00
2023-06-19T08:42:43.710Z,1039.00
2023-06-19T08:43:43.712Z,1064.00
2023-06-19T08:44:43.719Z,1132.00
2023-06-19T08:45:43.784Z,1288.00
2023-06-19T08:46:43.783Z,1248.00
2023-06-19T08:47:43.790Z,1165.00
2023-06-19T08:48:43.786Z,988.00
2023-06-19T08:49:43.817Z,740.00
2023-06-19T08:50:44.770Z,607.00
2023-06-19T08:51:43.754Z,582.00
2023-06-19T08:52:43.725Z,542.00
2023-06-19T08:53:43.710Z,591.00
2023-06-19T08:54:43.684Z,646.00
2023-06-19T08:55:44.015Z,687.00
2023-06-19T08:56:43.637Z,722.00
2023-06-19T08:57:43.615Z,591.00
2023-06-19T08:58:43.562Z,634.00
2023-06-19T08:59:43.564Z,711.00
2023-06-19T09:00:43.573Z,765.00
2023-06-19T09:01:43.570Z,762.00
2023-06-19T09:02:43.675Z,722.00
2023-06-19T09:03:43.676Z,589.00
2023-06-19T09:04:43.613Z,642.00
2023-06-19T09:05:46.772Z,680.00
2023-06-19T09:06:43.652Z,591.00
2023-06-19T09:07:43.538Z,565.00
2023-06-19T09:08:43.491Z,550.00
2023-06-19T09:09:43.449Z,463.00
2023-06-19T09:10:43.401Z,471.00
2023-06-19T09:11:43.351Z,507.00
2023-06-19T09:12:43.387Z,585.00
2023-06-19T09:13:43.269Z,630.00
2023-06-19T09:14:43.224Z,616.00
2023-06-19T09:15:43.172Z,612.00
2023-06-19T09:16:43.140Z,610.00
2023-06-19T09:17:43.150Z,653.00
2023-06-19T09:18:43.059Z,623.00
2023-06-19T09:19:43.004Z,635.00
2023-06-19T09:20:43.026Z,631.00
2023-06-19T09:21:44.021Z,611.00
2023-06-19T09:22:42.859Z,608.00
2023-06-19T09:23:42.822Z,581.00
2023-06-19T09:24:42.916Z,553.00
2023-06-19T09:25:42.920Z,569.00
2023-06-19T09:26:42.726Z,576.00
2023-06-19T09:27:42.757Z,572.00
2023-06-19T09:28:42.802Z,558.00
2023-06-19T09:29:42.827Z,571.00
2023-06-19T09:30:42.805Z,575.00
2023-06-19T09:31:42.812Z,519.00
2023-06-19T09:32:42.880Z,558.00
2023-06-19T09:33:42.861Z,509.00
2023-06-19T09:34:42.726Z,543.00
2023-06-19T09:35:42.690Z,501.00
2023-06-19T09:36:42.668Z,500.00
2023-06-19T09:37:42.677Z,548.00
2023-06-19T09:38:42.636Z,619.00
2023-06-19T09:39:42.596Z,535.00
2023-06-19T09:40:42.552Z,498.00
2023-06-19T09:41:42.677Z,451.00
2023-06-19T09:42:42.491Z,522.00
2023-06-19T09:43:42.469Z,614.00
2023-06-19T09:44:46.103Z,568.00
2023-06-19T09:45:43.045Z,568.00
2023-06-19T09:46:42.331Z,537.00
2023-06-19T09:47:42.324Z,560.00
2023-06-19T09:48:42.178Z,561.00
2023-06-19T09:49:42.109Z,617.00
2023-06-19T09:50:42.043Z,650.00
2023-06-19T09:51:41.974Z,625.00
2023-06-19T09:52:41.909Z,588.00
2023-06-19T09:53:41.890Z,598.00
2023-06-19T09:54:41.770Z,589.00
2023-06-19T09:55:41.722Z,567.00
2023-06-19T09:56:41.661Z,555.00
2023-06-19T09:57:41.623Z,585.00
2023-06-19T09:58:41.535Z,536.00
2023-06-19T09:59:41.502Z,559.00
2023-06-19T10:00:41.417Z,575.00
2023-06-19T10:01:41.339Z,590.00
2023-06-19T10:02:41.354Z,589.00
2023-06-19T10:03:41.300Z,575.00
2023-06-19T10:04:41.159Z,582.00
2023-06-19T10:05:41.095Z,506.00
2023-06-19T10:06:41.030Z,593.00
2023-06-19T10:07:40.983Z,605.00
2023-06-19T10:08:40.922Z,583.00
2023-06-19T10:09:40.988Z,628.00
2023-06-19T10:10:40.762Z,597.00
2023-06-19T10:11:40.686Z,593.00
2023-06-19T10:12:40.616Z,572.00
2023-06-19T10:13:40.585Z,553.00
2023-06-19T10:14:40.480Z,542.00
2023-06-19T10:15:40.485Z,581.00
2023-06-19T10:16:40.405Z,631.00
2023-06-19T10:17:40.277Z,587.00
2023-06-19T10:18:40.157Z,527.00
2023-06-19T10:19:40.078Z,529.00
2023-06-19T10:20:46.371Z,566.00
2023-06-19T10:21:40.994Z,513.00
2023-06-19T10:22:39.884Z,508.00
2023-06-19T10:23:39.882Z,559.00
2023-06-19T10:24:39.843Z,568.00
2023-06-19T10:25:39.683Z,545.00
2023-06-19T10:26:39.591Z,546.00
2023-06-19T10:27:39.536Z,540.00
2023-06-19T10:28:39.437Z,559.00
2023-06-19T10:29:39.424Z,620.00
2023-06-19T10:30:39.324Z,633.00
2023-06-19T10:31:39.188Z,708.00
2023-06-19T10:32:39.125Z,642.00
2023-06-19T10:33:39.016Z,578.00
2023-06-19T10:34:39.573Z,572.00
2023-06-19T10:35:38.842Z,561.00
2023-06-19T10:36:38.758Z,565.00
2023-06-19T10:37:38.753Z,570.00
2023-06-19T10:38:38.634Z,593.00
2023-06-19T10:39:38.574Z,509.00
2023-06-19T10:40:38.553Z,518.00
2023-06-19T10:41:38.524Z,527.00
2023-06-19T10:42:38.484Z,576.00
2023-06-19T10:43:38.981Z,524.00
2023-06-19T10:44:38.442Z,535.00
2023-06-19T10:45:38.453Z,589.00
2023-06-19T10:46:38.413Z,618.00
2023-06-19T10:47:38.353Z,567.00
2023-06-19T10:48:38.445Z,494.00
2023-06-19T10:49:38.314Z,499.00
2023-06-19T10:50:38.257Z,526.00
2023-06-19T10:51:38.219Z,433.00
2023-06-19T10:52:38.274Z,400.00
2023-06-19T10:53:38.146Z,580.00
2023-06-19T10:54:38.108Z,717.00
2023-06-19T10:55:38.057Z,692.00
2023-06-19T10:56:38.019Z,677.00
2023-06-19T10:57:38.008Z,664.00
2023-06-19T10:58:37.910Z,718.00
2023-06-19T10:59:37.850Z,766.00
2023-06-19T11:00:37.791Z,701.00
2023-06-19T11:01:37.819Z,675.00
2023-06-19T11:02:37.839Z,489.00
2023-06-19T11:03:37.712Z,400.00
2023-06-19T11:04:37.648Z,454.00
2023-06-19T11:05:37.621Z,523.00
2023-06-19T11:06:37.584Z,658.00
2023-06-19T11:07:37.525Z,833.00
2023-06-19T11:08:37.502Z,581.00
2023-06-19T11:09:37.471Z,559.00
2023-06-19T11:10:37.432Z,815.00
2023-06-19T11:11:37.385Z,1424.00
2023-06-19T11:12:37.360Z,1219.00
2023-06-19T11:13:37.323Z,1263.00
2023-06-19T11:14:37.309Z,965.00
2023-06-19T11:15:37.280Z,1318.00
2023-06-19T11:16:37.277Z,1397.00
2023-06-19T11:17:37.215Z,1150.00
2023-06-19T11:18:37.148Z,909.00
2023-06-19T11:19:37.113Z,1265.00
2023-06-19T11:20:37.129Z,1480.00
2023-06-19T11:21:37.025Z,1332.00
2023-06-19T11:22:36.991Z,1024.00
2023-06-19T11:23:37.048Z,1007.00
2023-06-19T11:24:36.982Z,934.00
2023-06-19T11:25:36.839Z,629.00
2023-06-19T11:26:36.792Z,775.00
2023-06-19T11:27:36.858Z,1091.00
2023-06-19T11:28:37.581Z,1213.00
2023-06-19T11:29:36.661Z,1075.00
2023-06-19T11:30:37.594Z,958.00
2023-06-19T11:31:36.493Z,855.00
2023-06-19T11:32:36.471Z,974.00
2023-06-19T11:33:36.329Z,1066.00
2023-06-19T11:34:36.227Z,1283.00
2023-06-19T11:35:36.145Z,1203.00
2023-06-19T11:36:36.071Z,1166.00
2023-06-19T11:37:36.009Z,1085.00
2023-06-19T11:38:35.909Z,851.00
2023-06-19T11:39:35.832Z,856.00
2023-06-19T11:40:35.776Z,912.00
2023-06-19T11:41:35.755Z,984.00
2023-06-19T11:42:35.744Z,1095.00
2023-06-19T11:43:35.691Z,1009.00
2023-06-19T11:44:36.814Z,1383.00
2023-06-19T11:45:35.584Z,1647.00
2023-06-19T11:46:35.569Z,1336.00
2023-06-19T11:47:35.511Z,1235.00
2023-06-19T11:48:35.422Z,1168.00
2023-06-19T11:49:35.353Z,1183.00
2023-06-19T11:50:35.288Z,1124.00
2023-06-19T11:51:35.149Z,838.00
2023-06-19T11:52:35.101Z,614.00
2023-06-19T11:53:35.011Z,589.00
2023-06-19T11:54:35.172Z,739.00
2023-06-19T11:55:36.188Z,1187.00
2023-06-19T11:56:35.225Z,1238.00
2023-06-19T11:57:35.130Z,729.00
2023-06-19T11:58:35.033Z,502.00
2023-06-19T11:59:34.936Z,447.00
2023-06-19T12:00:34.849Z,671.00
2023-06-19T12:01:34.726Z,932.00
2023-06-19T12:02:35.215Z,599.00
2023-06-19T12:03:34.636Z,549.00
2023-06-19T12:04:35.166Z,571.00
2023-06-19T12:05:34.428Z,582.00
2023-06-19T12:06:34.373Z,721.00
2023-06-19T12:07:34.331Z,977.00
2023-06-19T12:08:34.281Z,1167.00
2023-06-19T12:09:34.242Z,1441.00
2023-06-19T12:10:34.155Z,1439.00
2023-06-19T12:11:34.107Z,1362.00
2023-06-19T12:12:34.033Z,1369.00